createdAt,value
2022-11-17T00:00:42.005Z,8.60
2022-11-17T00:03:14.722Z,8.87
2022-11-17T00:05:41.602Z,7.13
2022-11-17T00:08:08.475Z,7.13
2022-11-17T00:10:35.354Z,6.83
2022-11-17T00:13:40.881Z,7.20
2022-11-17T00:16:07.891Z,7.27
2022-11-17T00:18:53.598Z,8.63
2022-11-17T00:21:21.442Z,6.50
2022-11-17T00:23:49.671Z,6.00
2022-11-17T00:26:20.318Z,6.50
2022-11-17T00:28:48.116Z,6.30
2022-11-17T00:31:33.788Z,6.07
2022-11-17T00:34:07.340Z,6.20
2022-11-17T00:36:41.564Z,5.70
2022-11-17T00:39:09.534Z,6.20
2022-11-17T00:41:36.482Z,6.13
2022-11-17T00:44:04.472Z,5.97
2022-11-17T00:46:31.797Z,6.10
2022-11-17T00:48:58.727Z,5.50
2022-11-17T00:51:25.615Z,6.67
2022-11-17T00:53:52.634Z,5.70
2022-11-17T00:56:19.506Z,5.37
2022-11-17T00:58:46.403Z,6.43
2022-11-17T01:01:13.615Z,5.73
2022-11-17T01:03:40.570Z,5.53
2022-11-17T01:06:14.344Z,5.90
2022-11-17T01:08:41.707Z,5.10
2022-11-17T01:11:11.935Z,5.13
2022-11-17T01:13:41.127Z,5.00
2022-11-17T01:16:14.637Z,5.20
2022-11-17T01:18:43.051Z,5.57
2022-11-17T01:21:21.179Z,5.17
2022-11-17T01:23:50.326Z,5.00
2022-11-17T01:26:21.098Z,5.83
2022-11-17T01:28:48.490Z,5.30
2022-11-17T01:31:19.340Z,5.10
2022-11-17T01:33:47.072Z,4.60
2022-11-17T01:36:24.139Z,5.90
2022-11-17T01:38:51.624Z,5.60
2022-11-17T01:41:26.016Z,5.20
2022-11-17T01:43:58.838Z,5.43
2022-11-17T01:46:38.704Z,5.57
2022-11-17T01:49:21.607Z,5.97
2022-11-17T01:52:02.396Z,5.27
2022-11-17T01:54:31.468Z,4.97
2022-11-17T01:57:04.796Z,4.90
2022-11-17T01:59:46.767Z,5.10
2022-11-17T02:02:13.639Z,4.80
2022-11-17T02:04:49.699Z,5.10
2022-11-17T02:07:30.165Z,5.30
2022-11-17T02:09:58.642Z,5.67
2022-11-17T02:12:27.607Z,5.43
2022-11-17T02:14:55.212Z,4.90
2022-11-17T02:17:25.871Z,5.63
2022-11-17T02:20:13.407Z,4.97
2022-11-17T02:23:00.080Z,6.30
2022-11-17T02:26:02.762Z,5.30
2022-11-17T02:29:02.750Z,5.13
2022-11-17T02:32:05.013Z,5.77
2022-11-17T02:34:46.800Z,6.30
2022-11-17T02:37:37.194Z,5.23
2022-11-17T02:40:23.643Z,5.80
2022-11-17T02:43:19.671Z,6.00
2022-11-17T02:46:50.458Z,6.20
2022-11-17T02:49:33.106Z,6.90
2022-11-17T02:52:01.786Z,6.63
2022-11-17T02:54:30.963Z,6.60
2022-11-17T02:56:57.851Z,5.90
2022-11-17T02:59:42.622Z,4.93
2022-11-17T03:02:28.951Z,6.13
2022-11-17T03:05:15.151Z,6.03
2022-11-17T03:07:51.907Z,6.00
2022-11-17T03:10:27.142Z,6.40
2022-11-17T03:13:08.112Z,7.20
2022-11-17T03:16:01.763Z,5.93
2022-11-17T03:18:58.663Z,6.47
2022-11-17T03:21:38.461Z,6.77
2022-11-17T03:24:18.362Z,6.43
2022-11-17T03:26:52.554Z,6.80
2022-11-17T03:29:23.037Z,7.93
2022-11-17T03:31:56.587Z,7.03
2022-11-17T03:34:24.715Z,7.50
2022-11-17T03:37:00.182Z,7.23
2022-11-17T03:39:35.175Z,6.90
2022-11-17T03:42:19.184Z,7.87
2022-11-17T03:44:53.007Z,7.97
2022-11-17T03:47:23.252Z,7.97
2022-11-17T03:50:10.671Z,8.27
2022-11-17T03:52:38.756Z,8.10
2022-11-17T03:55:07.718Z,7.93
2022-11-17T03:57:44.736Z,8.40
2022-11-17T04:00:17.076Z,7.93
2022-11-17T04:02:47.563Z,9.10
2022-11-17T04:05:17.269Z,8.33
2022-11-17T04:07:46.881Z,7.87
2022-11-17T04:10:17.168Z,7.93
2022-11-17T04:13:02.998Z,7.80
2022-11-17T04:15:48.528Z,7.80
2022-11-17T04:18:16.335Z,7.60
2022-11-17T04:20:43.589Z,7.47
2022-11-17T04:23:15.371Z,8.37
2022-11-17T04:26:04.577Z,9.30
2022-11-17T04:28:37.368Z,8.27
2022-11-17T04:31:24.850Z,7.60
2022-11-17T04:33:57.520Z,8.17
2022-11-17T04:36:29.309Z,8.27
2022-11-17T04:38:58.755Z,8.13
2022-11-17T04:41:47.006Z,8.33
2022-11-17T04:44:16.316Z,8.87
2022-11-17T04:46:46.768Z,7.80
2022-11-17T04:49:15.385Z,8.03
2022-11-17T04:51:42.519Z,8.50
2022-11-17T04:54:12.131Z,7.90
2022-11-17T04:56:39.489Z,8.77
2022-11-17T04:59:07.090Z,8.70
2022-11-17T05:01:35.063Z,9.40
2022-11-17T05:04:08.148Z,7.50
2022-11-17T05:06:41.483Z,8.67
2022-11-17T05:09:15.343Z,7.80
2022-11-17T05:12:01.930Z,8.20
2022-11-17T05:14:30.043Z,8.17
2022-11-17T05:17:11.036Z,7.43
2022-11-17T05:19:47.414Z,7.70
2022-11-17T05:22:37.162Z,8.20
2022-11-17T05:25:05.563Z,7.87
2022-11-17T05:27:33.924Z,7.97
2022-11-17T05:30:02.878Z,7.90
2022-11-17T05:32:29.775Z,7.67
2022-11-17T05:34:56.644Z,7.07
2022-11-17T05:37:23.537Z,8.47
2022-11-17T05:39:50.398Z,8.30
2022-11-17T05:42:17.284Z,8.10
2022-11-17T05:44:44.173Z,7.20
2022-11-17T05:47:11.058Z,8.40
2022-11-17T05:49:37.902Z,7.60
2022-11-17T05:52:04.883Z,7.23
2022-11-17T05:54:31.755Z,7.20
2022-11-17T05:57:04.911Z,8.60
2022-11-17T05:59:45.022Z,7.80
2022-11-17T06:02:32.690Z,7.90
2022-11-17T06:04:59.545Z,8.87
2022-11-17T06:07:26.807Z,7.10
2022-11-17T06:09:54.618Z,6.63
2022-11-17T06:12:21.524Z,8.20
2022-11-17T06:14:48.414Z,8.17
2022-11-17T06:17:27.186Z,7.73
2022-11-17T06:20:03.918Z,7.27
2022-11-17T06:22:31.428Z,7.60
2022-11-17T06:25:00.143Z,8.07
2022-11-17T06:27:27.303Z,7.37
2022-11-17T06:29:55.859Z,7.67
2022-11-17T06:32:23.018Z,7.57
2022-11-17T06:34:55.260Z,7.60
2022-11-17T06:37:24.608Z,7.60
2022-11-17T06:39:51.520Z,7.83
2022-11-17T06:42:18.411Z,6.80
2022-11-17T06:44:45.294Z,7.07
2022-11-17T06:47:12.190Z,6.87
2022-11-17T06:49:39.125Z,7.10
2022-11-17T06:52:06.018Z,7.53
2022-11-17T06:54:32.889Z,7.90
2022-11-17T06:57:00.273Z,7.87
2022-11-17T06:59:27.158Z,8.00
2022-11-17T07:01:54.003Z,7.40
2022-11-17T07:04:20.827Z,9.20
2022-11-17T07:06:47.687Z,8.00
2022-11-17T07:09:14.564Z,7.60
2022-11-17T07:11:41.444Z,7.93
2022-11-17T07:14:08.341Z,6.97
2022-11-17T07:16:35.211Z,7.60
2022-11-17T07:19:03.697Z,7.63
2022-11-17T07:21:31.123Z,7.30
2022-11-17T07:23:58.055Z,7.13
2022-11-17T07:26:24.995Z,8.57
2022-11-17T07:28:51.875Z,7.50
2022-11-17T07:31:18.752Z,8.10
2022-11-17T07:33:45.623Z,7.80
2022-11-17T07:36:16.692Z,8.17
2022-11-17T07:38:43.564Z,7.73
2022-11-17T07:41:13.911Z,7.87
2022-11-17T07:43:41.135Z,8.47
2022-11-17T07:46:11.919Z,8.00
2022-11-17T07:48:39.782Z,7.50
2022-11-17T07:51:07.316Z,8.50
2022-11-17T07:53:35.291Z,8.23
2022-11-17T07:56:11.818Z,8.67
2022-11-17T07:58:39.813Z,8.10
2022-11-17T08:01:16.667Z,7.40
2022-11-17T08:03:44.070Z,8.60
2022-11-17T08:06:11.457Z,8.30
2022-11-17T08:08:39.174Z,8.53
2022-11-17T08:11:11.928Z,7.47
2022-11-17T08:13:40.448Z,7.40
2022-11-17T08:16:09.331Z,7.57
2022-11-17T08:18:36.954Z,7.10
2022-11-17T08:21:09.895Z,8.53
2022-11-17T08:23:37.586Z,7.80
2022-11-17T08:26:06.351Z,6.70
2022-11-17T08:28:36.707Z,7.50
2022-11-17T08:31:06.047Z,8.33
2022-11-17T08:33:33.293Z,7.03
2022-11-17T08:36:02.001Z,7.73
2022-11-17T08:38:29.257Z,7.87
2022-11-17T08:41:03.310Z,7.63
2022-11-17T08:43:30.636Z,8.43
2022-11-17T08:45:57.526Z,7.33
2022-11-17T08:48:24.737Z,8.00
2022-11-17T08:50:52.117Z,7.90
2022-11-17T08:53:21.356Z,8.47
2022-11-17T08:55:48.259Z,8.20
2022-11-17T08:58:15.632Z,8.30
2022-11-17T09:00:43.044Z,8.87
2022-11-17T09:03:11.499Z,8.60
2022-11-17T09:05:44.817Z,6.57
2022-11-17T09:08:43.995Z,7.57
2022-11-17T09:11:08.750Z,8.20
2022-11-17T09:13:36.899Z,7.13
2022-11-17T09:16:10.364Z,7.07
2022-11-17T09:18:38.800Z,8.00
2022-11-17T09:21:09.752Z,8.30
2022-11-17T09:23:37.006Z,7.70
2022-11-17T09:26:13.382Z,8.07
2022-11-17T09:28:40.831Z,7.83
2022-11-17T09:31:10.349Z,7.23
2022-11-17T09:33:38.514Z,7.90
2022-11-17T09:36:07.495Z,7.80
2022-11-17T09:38:38.453Z,6.67
2022-11-17T09:41:37.450Z,7.53
2022-11-17T09:44:31.815Z,7.80
2022-11-17T09:47:21.872Z,7.10
2022-11-17T09:50:16.105Z,7.20
2022-11-17T09:52:59.078Z,8.00
2022-11-17T09:55:39.812Z,8.93
2022-11-17T09:58:25.083Z,6.83
2022-11-17T10:00:53.770Z,7.70
2022-11-17T10:03:26.241Z,8.03
2022-11-17T10:05:54.053Z,8.37
2022-11-17T10:08:38.357Z,7.70
2022-11-17T10:11:31.562Z,7.47
2022-11-17T10:14:14.960Z,7.80
2022-11-17T10:16:54.937Z,6.87
2022-11-17T10:19:27.015Z,8.63
2022-11-17T10:22:02.368Z,8.50
2022-11-17T10:24:43.003Z,7.40
2022-11-17T10:27:25.684Z,7.83
2022-11-17T10:30:14.357Z,8.50
2022-11-17T10:32:51.484Z,9.10
2022-11-17T10:35:25.393Z,8.30
2022-11-17T10:38:01.002Z,8.40
2022-11-17T10:40:39.947Z,8.07
2022-11-17T10:43:23.706Z,8.30
2022-11-17T10:46:19.179Z,8.57
2022-11-17T10:49:04.927Z,9.77
2022-11-17T10:51:34.355Z,9.20
2022-11-17T10:54:16.472Z,9.00
2022-11-17T10:56:48.191Z,9.43
2022-11-17T10:59:41.535Z,8.87
2022-11-17T11:02:36.296Z,9.60
2022-11-17T11:05:13.118Z,10.10
2022-11-17T11:07:40.968Z,9.60
2022-11-17T11:10:16.511Z,9.17
2022-11-17T11:12:52.398Z,8.90
2022-11-17T11:15:25.235Z,8.50
2022-11-17T11:17:52.562Z,8.20
2022-11-17T11:20:25.590Z,9.90
2022-11-17T11:23:00.824Z,9.80
2022-11-17T11:25:40.511Z,9.80
2022-11-17T11:28:41.325Z,8.80
2022-11-17T11:32:05.121Z,9.37
2022-11-17T11:35:16.997Z,8.27
2022-11-17T11:38:03.415Z,8.50
2022-11-17T11:40:36.288Z,9.20
2022-11-17T11:43:44.907Z,8.77
2022-11-17T11:46:56.724Z,10.30
2022-11-17T11:49:54.768Z,10.17
2022-11-17T11:52:27.173Z,10.50
2022-11-17T11:55:01.939Z,10.20
2022-11-17T11:57:36.545Z,9.97
2022-11-17T12:00:15.904Z,9.23
2022-11-17T12:03:13.819Z,10.43
2022-11-17T12:06:27.173Z,10.30
2022-11-17T12:09:33.765Z,9.17
2022-11-17T12:12:07.874Z,10.00
2022-11-17T12:14:39.008Z,10.97
2022-11-17T12:17:23.489Z,10.70
2022-11-17T12:19:59.765Z,11.37
2022-11-17T12:22:29.520Z,9.50
2022-11-17T12:25:04.473Z,10.33
2022-11-17T12:27:43.684Z,10.50
2022-11-17T12:30:36.694Z,10.77
2022-11-17T12:33:12.615Z,12.20
2022-11-17T12:35:40.103Z,9.30
2022-11-17T12:38:16.341Z,10.53
2022-11-17T12:40:51.569Z,10.80
2022-11-17T12:43:27.735Z,11.17
2022-11-17T12:46:23.550Z,10.70
2022-11-17T12:49:19.502Z,10.37
2022-11-17T12:51:59.181Z,10.23
2022-11-17T12:54:38.878Z,10.13
2022-11-17T12:57:16.863Z,10.50
2022-11-17T13:00:07.466Z,10.73
2022-11-17T13:02:56.054Z,10.83
2022-11-17T13:05:27.655Z,11.37
2022-11-17T13:08:13.224Z,9.90
2022-11-17T13:10:40.205Z,10.20
2022-11-17T13:13:23.648Z,11.00
2022-11-17T13:16:00.007Z,10.20
2022-11-17T13:18:36.047Z,10.40
2022-11-17T13:21:04.471Z,10.27
2022-11-17T13:23:33.542Z,10.13
2022-11-17T13:26:16.991Z,11.17
2022-11-17T13:28:45.261Z,9.33
2022-11-17T13:31:25.907Z,10.87
2022-11-17T13:34:17.752Z,10.53
2022-11-17T13:36:59.399Z,10.80
2022-11-17T13:39:28.001Z,10.00
2022-11-17T13:41:56.468Z,10.07
2022-11-17T13:44:27.177Z,11.60
2022-11-17T13:46:54.067Z,11.43
2022-11-17T13:49:37.924Z,12.20
2022-11-17T13:52:14.415Z,9.40
2022-11-17T13:54:45.282Z,11.13
2022-11-17T13:57:25.837Z,12.00
2022-11-17T13:59:53.510Z,11.10
2022-11-17T14:02:20.243Z,10.67
2022-11-17T14:05:09.561Z,11.07
2022-11-17T14:07:39.166Z,10.80
2022-11-17T14:10:33.529Z,11.40
2022-11-17T14:13:06.063Z,12.07
2022-11-17T14:15:37.988Z,10.33
2022-11-17T14:18:34.077Z,11.10
2022-11-17T14:21:12.393Z,11.87
2022-11-17T14:23:40.570Z,11.20
2022-11-17T14:26:22.485Z,11.50
2022-11-17T14:28:51.693Z,10.97
2022-11-17T14:31:19.527Z,11.80
2022-11-17T14:33:46.831Z,10.17
2022-11-17T14:36:16.400Z,11.40
2022-11-17T14:38:47.207Z,11.63
2022-11-17T14:41:19.088Z,11.60
2022-11-17T14:43:46.830Z,10.80
2022-11-17T14:46:26.006Z,11.37
2022-11-17T14:48:53.877Z,11.37
2022-11-17T14:51:21.392Z,11.57
2022-11-17T14:53:48.594Z,10.93
2022-11-17T14:56:18.411Z,10.13
2022-11-17T14:58:46.832Z,10.63
2022-11-17T15:01:25.676Z,11.13
2022-11-17T15:03:53.529Z,12.00
2022-11-17T15:06:20.660Z,12.43
2022-11-17T15:08:52.947Z,11.37
2022-11-17T15:11:19.809Z,12.13
2022-11-17T15:13:46.686Z,11.73
2022-11-17T15:16:13.587Z,10.83
2022-11-17T15:18:40.489Z,11.40
2022-11-17T15:21:10.006Z,11.17
2022-11-17T15:23:39.288Z,10.63
2022-11-17T15:26:08.365Z,11.00
2022-11-17T15:28:35.290Z,11.60
2022-11-17T15:31:11.942Z,11.20
2022-11-17T15:33:40.777Z,12.20
2022-11-17T15:36:11.154Z,11.90
2022-11-17T15:38:39.925Z,11.60
2022-11-17T15:41:09.820Z,11.30
2022-11-17T15:43:39.615Z,12.70
2022-11-17T15:46:13.134Z,13.10
2022-11-17T15:48:44.924Z,13.23
2022-11-17T15:51:14.815Z,13.63
2022-11-17T15:53:42.687Z,14.57
2022-11-17T15:56:16.687Z,13.47
2022-11-17T15:58:44.272Z,11.90
2022-11-17T16:01:27.307Z,11.40
2022-11-17T16:04:00.825Z,13.00
2022-11-17T16:06:28.706Z,13.40
2022-11-17T16:08:55.674Z,11.97
2022-11-17T16:11:22.785Z,13.70
2022-11-17T16:13:56.278Z,13.43
2022-11-17T16:16:25.526Z,12.47
2022-11-17T16:18:52.696Z,12.93
2022-11-17T16:21:19.582Z,13.27
2022-11-17T16:23:53.072Z,11.83
2022-11-17T16:26:20.816Z,12.50
2022-11-17T16:28:47.894Z,13.83
2022-11-17T16:31:24.064Z,12.50
2022-11-17T16:33:57.697Z,12.33
2022-11-17T16:36:36.014Z,12.13
2022-11-17T16:39:06.564Z,11.87
2022-11-17T16:41:37.265Z,13.70
2022-11-17T16:44:12.915Z,13.47
2022-11-17T16:46:43.704Z,12.30
2022-11-17T16:49:14.305Z,13.07
2022-11-17T16:51:46.878Z,13.47
2022-11-17T16:54:13.778Z,13.87
2022-11-17T16:56:40.668Z,12.80
2022-11-17T16:59:07.554Z,13.97
2022-11-17T17:01:37.442Z,13.23
2022-11-17T17:04:08.469Z,13.10
2022-11-17T17:06:41.093Z,11.80
2022-11-17T17:09:10.619Z,12.00
2022-11-17T17:11:38.185Z,12.50
2022-11-17T17:14:08.338Z,13.20
2022-11-17T17:16:37.649Z,11.57
2022-11-17T17:19:07.227Z,11.23
2022-11-17T17:21:36.273Z,12.03
2022-11-17T17:24:04.078Z,11.50
2022-11-17T17:26:32.461Z,11.47
2022-11-17T17:29:01.128Z,11.80
2022-11-17T17:31:34.663Z,11.50
2022-11-17T17:34:01.727Z,10.97
2022-11-17T17:36:29.747Z,10.97
2022-11-17T17:39:00.423Z,11.27
2022-11-17T17:41:30.004Z,12.90
2022-11-17T17:44:03.148Z,12.23
2022-11-17T17:46:33.592Z,12.10
2022-11-17T17:49:00.644Z,11.30
2022-11-17T17:51:29.521Z,11.13
2022-11-17T17:54:00.904Z,11.00
2022-11-17T17:56:30.300Z,12.10
2022-11-17T17:58:57.752Z,11.80
2022-11-17T18:01:30.146Z,10.70
2022-11-17T18:04:04.406Z,10.83
2022-11-17T18:06:37.358Z,9.83
2022-11-17T18:09:05.718Z,10.83
2022-11-17T18:11:33.118Z,10.57
2022-11-17T18:14:00.465Z,10.57
2022-11-17T18:16:31.183Z,10.07
2022-11-17T18:19:04.683Z,9.83
2022-11-17T18:21:32.695Z,9.63
2022-11-17T18:24:02.105Z,10.37
2022-11-17T18:26:32.812Z,10.43
2022-11-17T18:29:03.163Z,9.97
2022-11-17T18:31:33.305Z,9.07
2022-11-17T18:34:03.977Z,9.03
2022-11-17T18:36:31.209Z,9.87
2022-11-17T18:39:01.265Z,9.30
2022-11-17T18:41:30.753Z,8.70
2022-11-17T18:43:58.542Z,8.93
2022-11-17T18:46:28.126Z,9.00
2022-11-17T18:48:55.933Z,9.40
2022-11-17T18:51:26.993Z,9.23
2022-11-17T18:53:55.673Z,8.10
2022-11-17T18:56:35.118Z,8.53
2022-11-17T18:59:03.064Z,9.10
2022-11-17T19:01:30.828Z,10.13
2022-11-17T19:04:02.104Z,9.20
2022-11-17T19:06:29.524Z,9.70
2022-11-17T19:08:59.566Z,8.63
2022-11-17T19:11:27.514Z,9.47
2022-11-17T19:13:54.391Z,9.07
2022-11-17T19:16:24.597Z,8.90
2022-11-17T19:18:54.680Z,9.43
2022-11-17T19:21:28.235Z,10.30
2022-11-17T19:23:58.735Z,8.73
2022-11-17T19:26:28.585Z,9.93
2022-11-17T19:29:01.456Z,8.87
2022-11-17T19:31:29.058Z,9.40
2022-11-17T19:33:57.757Z,8.93
2022-11-17T19:36:30.897Z,8.37
2022-11-17T19:38:59.964Z,10.30
2022-11-17T19:41:33.606Z,9.47
2022-11-17T19:44:05.839Z,8.60
2022-11-17T19:46:33.469Z,7.60
2022-11-17T19:49:00.524Z,9.80
2022-11-17T19:51:30.726Z,8.43
2022-11-17T19:54:01.877Z,8.33
2022-11-17T19:56:28.945Z,8.47
2022-11-17T19:58:55.910Z,9.87
2022-11-17T20:01:28.961Z,9.97
2022-11-17T20:03:57.515Z,10.13
2022-11-17T20:06:28.711Z,10.37
2022-11-17T20:08:57.475Z,10.27
2022-11-17T20:11:27.238Z,8.87
2022-11-17T20:13:55.271Z,11.70
2022-11-17T20:16:27.374Z,12.03
2022-11-17T20:19:00.322Z,10.83
2022-11-17T20:21:29.144Z,12.53
2022-11-17T20:23:56.273Z,12.10
2022-11-17T20:26:27.939Z,11.40
2022-11-17T20:28:55.312Z,10.67
2022-11-17T20:31:25.834Z,11.87
2022-11-17T20:33:57.431Z,11.70
2022-11-17T20:36:24.728Z,11.20
2022-11-17T20:39:00.419Z,12.17
2022-11-17T20:41:27.813Z,11.73
2022-11-17T20:43:57.590Z,11.70
2022-11-17T20:46:25.085Z,12.33
2022-11-17T20:48:52.407Z,10.83
2022-11-17T20:51:22.172Z,12.20
2022-11-17T20:53:49.375Z,12.17
2022-11-17T20:56:17.367Z,11.13
2022-11-17T20:58:44.753Z,11.83
2022-11-17T21:01:21.115Z,11.97
2022-11-17T21:03:48.143Z,11.70
2022-11-17T21:06:15.581Z,14.53
2022-11-17T21:08:44.614Z,14.40
2022-11-17T21:11:36.319Z,14.57
2022-11-17T21:14:05.783Z,12.70
2022-11-17T21:16:33.903Z,15.07
2022-11-17T21:19:00.776Z,12.93
2022-11-17T21:21:27.670Z,15.10
2022-11-17T21:23:55.839Z,14.73
2022-11-17T21:26:23.467Z,13.57
2022-11-17T21:28:50.791Z,14.10
2022-11-17T21:31:23.801Z,14.00
2022-11-17T21:33:56.290Z,13.67
2022-11-17T21:36:24.852Z,15.73
2022-11-17T21:38:52.384Z,16.57
2022-11-17T21:41:26.322Z,13.87
2022-11-17T21:43:58.083Z,16.20
2022-11-17T21:46:27.675Z,14.50
2022-11-17T21:48:57.311Z,14.97
2022-11-17T21:51:38.303Z,15.50
2022-11-17T21:54:08.335Z,13.23
2022-11-17T21:56:36.437Z,15.40
2022-11-17T21:59:12.278Z,12.60
2022-11-17T22:01:39.712Z,15.23
2022-11-17T22:04:06.990Z,14.00
2022-11-17T22:06:34.222Z,14.27
2022-11-17T22:09:01.119Z,14.87
2022-11-17T22:11:36.880Z,12.80
2022-11-17T22:14:06.537Z,13.97
2022-11-17T22:16:34.578Z,14.40
2022-11-17T22:19:02.062Z,14.40
2022-11-17T22:21:29.247Z,14.93
2022-11-17T22:23:56.275Z,15.20
2022-11-17T22:26:23.332Z,14.87
2022-11-17T22:28:54.711Z,14.90
2022-11-17T22:31:22.595Z,15.40
2022-11-17T22:33:50.428Z,15.20
2022-11-17T22:36:18.490Z,15.57
2022-11-17T22:38:49.542Z,14.70
2022-11-17T22:41:16.414Z,14.50
2022-11-17T22:43:43.306Z,13.97
2022-11-17T22:46:11.509Z,15.47
2022-11-17T22:48:38.646Z,15.77
2022-11-17T22:51:08.242Z,14.40
2022-11-17T22:53:35.211Z,15.13
2022-11-17T22:56:09.585Z,15.30
2022-11-17T22:58:36.443Z,15.37
2022-11-17T23:01:05.732Z,15.53
2022-11-17T23:03:33.620Z,15.10
2022-11-17T23:06:04.777Z,15.43
2022-11-17T23:08:32.160Z,15.93
2022-11-17T23:11:34.842Z,18.67
2022-11-17T23:13:52.523Z,15.50
2022-11-17T23:16:19.427Z,15.87
2022-11-17T23:18:46.334Z,17.00
2022-11-17T23:21:13.822Z,16.47
2022-11-17T23:23:40.997Z,16.23
2022-11-17T23:26:10.976Z,15.97
2022-11-17T23:28:42.420Z,17.17
2022-11-17T23:31:15.129Z,16.83
2022-11-17T23:33:47.182Z,17.20
2022-11-17T23:36:20.210Z,17.50
2022-11-17T23:38:48.378Z,17.90
2022-11-17T23:41:17.874Z,18.20
2022-11-17T23:43:44.907Z,16.80
2022-11-17T23:46:18.081Z,17.90
2022-11-17T23:48:45.356Z,18.40
2022-11-17T23:51:18.723Z,17.30
2022-11-17T23:53:49.502Z,18.00
2022-11-17T23:56:17.004Z,17.17
2022-11-17T23:58:44.194Z,18.70
